Time;durP1;ratioP1;P1;durP2;ratioP2;P2;SDS_P1;SDS_P2;PMS_P1;PMS_P2;Temp;Humidity;BMP_temperature;BMP_pressure;BME280_temperature;BME280_humidity;BME280_pressure;Samples;Min_cycle;Max_cycle;Signal;HPM_P1;HPM_P2
2021/07/01 00:01:05;;;;;;;;;;;;;;;27.61;40.95;100352.00;5096683;28;764;-42
2021/07/01 00:03:30;;;;;;;;;;;;;;;27.75;40.30;100349.44;5097175;28;792;-41
2021/07/01 00:05:55;;;;;;;;;;;;;;;27.66;40.92;100346.00;5078901;28;1270;-38
2021/07/01 00:08:21;;;;;;;;;;;;;;;27.71;40.49;100351.69;5096589;28;772;-42
2021/07/01 00:10:46;;;;;;;;;;;;;;;27.73;41.01;100357.75;5097101;28;832;-41
2021/07/01 00:13:11;;;;;;;;;;;;;;;27.71;41.02;100353.56;5097040;28;788;-39
2021/07/01 00:15:39;;;;;;;;;;;;;;;27.77;40.86;100341.97;5095800;28;991;-40
2021/07/01 00:18:05;;;;;;;;;;;;;;;27.83;40.79;100343.88;5096394;28;1963;-42
2021/07/01 00:20:30;;;;;;;;;;;;;;;27.87;40.92;100336.22;5078639;28;525;-38
2021/07/01 00:22:55;;;;;;;;;;;;;;;27.86;41.15;100342.66;5096153;28;1079;-41
2021/07/01 00:25:21;;;;;;;;;;;;;;;27.82;41.04;100353.03;5096922;28;841;-39
2021/07/01 00:27:46;;;;;;;;;;;;;;;27.87;41.06;100338.91;5096949;28;750;-42
2021/07/01 00:30:12;;;;;;;;;;;;;;;27.94;40.98;100331.69;5096013;28;1017;-41
2021/07/01 00:32:38;;;;;;;;;;;;;;;27.95;40.74;100333.34;5096821;28;747;-38
2021/07/01 00:35:04;;;;;;;;;;;;;;;27.97;41.22;100327.75;5096878;28;735;-42
2021/07/01 00:37:32;;;;;;;;;;;;;;;27.93;41.34;100334.56;5096053;28;799;-41
2021/07/01 00:39:57;;;;;;;;;;;;;;;27.88;41.45;100329.75;5096704;28;1914;-38
2021/07/01 00:42:22;;;;;;;;;;;;;;;27.86;41.37;100329.16;5097163;28;783;-38
2021/07/01 00:44:48;;;;;;;;;;;;;;;28.01;41.02;100325.47;5096113;28;926;-36
2021/07/01 00:47:16;;;;;;;;;;;;;;;27.92;41.43;100320.22;5096493;28;720;-42
2021/07/01 00:49:43;;;;;;;;;;;;;;;28.04;41.41;100323.22;5097069;28;771;-41
2021/07/01 00:52:08;;;;;;;;;;;;;;;28.02;41.41;100317.16;5096489;28;797;-38
2021/07/01 00:54:37;;;;;;;;;;;;;;;27.94;41.54;100320.03;5096667;28;854;-38
2021/07/01 00:57:02;;;;;;;;;;;;;;;27.94;41.48;100315.47;5099262;28;747;-42
2021/07/01 00:59:28;;;;;;;;;;;;;;;28.05;41.25;100311.34;5099626;28;1902;-38
2021/07/01 01:01:53;;;;;;;;;;;;;;;28.08;41.34;100312.81;5100623;28;795;-42
2021/07/01 01:04:18;;;;;;;;;;;;;;;28.09;41.43;100314.50;5100367;28;823;-38
2021/07/01 01:06:46;;;;;;;;;;;;;;;28.07;41.43;100316.56;5099757;28;858;-42
2021/07/01 01:09:11;;;;;;;;;;;;;;;28.13;41.22;100312.22;5100277;28;803;-42
2021/07/01 01:11:40;;;;;;;;;;;;;;;28.04;41.68;100303.44;5100566;28;822;-38
2021/07/01 01:14:05;;;;;;;;;;;;;;;28.15;41.44;100304.72;5099592;28;947;-42
2021/07/01 01:16:30;;;;;;;;;;;;;;;28.14;41.48;100303.91;5100478;28;766;-39
2021/07/01 01:18:56;;;;;;;;;;;;;;;28.15;41.67;100307.44;5099845;28;1963;-38
2021/07/01 01:21:24;;;;;;;;;;;;;;;28.18;41.72;100307.03;5099858;28;843;-36
2021/07/01 01:23:50;;;;;;;;;;;;;;;28.18;41.77;100301.63;5099892;28;1081;-37
2021/07/01 01:26:15;;;;;;;;;;;;;;;28.17;41.82;100297.25;5099756;28;789;-41
2021/07/01 01:28:41;;;;;;;;;;;;;;;28.16;41.53;100296.41;5099341;28;967;-36
2021/07/01 01:31:06;;;;;;;;;;;;;;;28.19;41.76;100298.75;5099891;28;783;-40
2021/07/01 01:33:32;;;;;;;;;;;;;;;28.20;41.66;100294.16;5099620;28;804;-37
2021/07/01 01:35:57;;;;;;;;;;;;;;;28.22;41.76;100290.22;5099530;28;764;-35
2021/07/01 01:38:22;;;;;;;;;;;;;;;28.22;41.63;100292.94;5099695;28;1918;-41
2021/07/01 01:40:48;;;;;;;;;;;;;;;28.16;42.09;100282.91;5099273;28;812;-38
2021/07/01 01:43:20;;;;;;;;;;;;;;;28.27;41.57;100281.50;5099109;28;867;-41
2021/07/01 01:45:45;;;;;;;;;;;;;;;28.29;41.90;100270.47;5081063;28;1220;-37
2021/07/01 01:48:10;;;;;;;;;;;;;;;28.27;41.80;100278.78;5098908;28;816;-41
2021/07/01 01:50:36;;;;;;;;;;;;;;;28.23;42.16;100277.50;5099651;28;747;-41
2021/07/01 01:53:01;;;;;;;;;;;;;;;28.19;42.12;100279.81;5099300;28;1474;-41
2021/07/01 01:55:26;;;;;;;;;;;;;;;28.24;42.05;100276.50;5098887;28;972;-40
2021/07/01 01:57:52;;;;;;;;;;;;;;;28.24;42.23;100276.50;5098938;28;1906;-38
2021/07/01 02:00:22;;;;;;;;;;;;;;;28.31;42.14;100274.63;5099039;28;951;-36
2021/07/01 02:02:47;;;;;;;;;;;;;;;28.31;42.08;100265.72;5099422;28;775;-37
2021/07/01 02:05:13;;;;;;;;;;;;;;;28.29;42.26;100273.19;5099102;28;779;-40
2021/07/01 02:07:38;;;;;;;;;;;;;;;28.25;42.23;100278.16;5098085;28;816;-35
2021/07/01 02:10:04;;;;;;;;;;;;;;;28.27;42.14;100278.78;5098890;28;727;-41
2021/07/01 02:12:30;;;;;;;;;;;;;;;28.20;42.57;100270.66;5098836;28;827;-38
2021/07/01 02:14:55;;;;;;;;;;;;;;;28.22;42.35;100270.44;5098534;28;951;-37
2021/07/01 02:17:20;;;;;;;;;;;;;;;28.24;42.62;100271.09;5098475;28;1038;-40
2021/07/01 02:19:46;;;;;;;;;;;;;;;28.27;42.35;100267.13;5098569;28;1902;-36
2021/07/01 02:22:11;;;;;;;;;;;;;;;28.26;42.61;100269.00;5098476;28;1415;-38
2021/07/01 02:24:36;;;;;;;;;;;;;;;28.34;42.08;100273.44;5098871;28;800;-39
2021/07/01 02:27:01;;;;;;;;;;;;;;;28.36;42.38;100284.91;5098530;28;791;-37
2021/07/01 02:29:28;;;;;;;;;;;;;;;28.29;42.57;100279.44;5098430;28;967;-39
2021/07/01 02:31:53;;;;;;;;;;;;;;;28.32;42.43;100278.19;5098659;28;772;-41
2021/07/01 02:34:18;;;;;;;;;;;;;;;28.31;42.38;100263.81;5080131;28;788;-36
2021/07/01 02:36:44;;;;;;;;;;;;;;;28.32;42.63;100268.22;5098579;28;755;-41
2021/07/01 02:39:09;;;;;;;;;;;;;;;28.36;42.52;100277.59;5098337;28;1906;-38
2021/07/01 02:41:35;;;;;;;;;;;;;;;28.38;42.28;100274.69;5098473;28;748;-36
2021/07/01 02:44:00;;;;;;;;;;;;;;;28.38;42.41;100274.69;5097747;28;998;-41
2021/07/01 02:46:25;;;;;;;;;;;;;;;28.35;42.69;100275.94;5098352;28;760;-37
2021/07/01 02:48:50;;;;;;;;;;;;;;;28.41;42.48;100285.09;5098365;28;837;-41
2021/07/01 02:51:16;;;;;;;;;;;;;;;28.38;42.63;100274.69;5098358;28;755;-42
2021/07/01 02:53:41;;;;;;;;;;;;;;;28.41;42.63;100273.47;5098312;28;830;-41
2021/07/01 02:56:06;;;;;;;;;;;;;;;28.39;42.65;100275.53;5098295;28;827;-41
2021/07/01 02:58:32;;;;;;;;;;;;;;;28.36;42.92;100283.00;5097842;28;1905;-42
2021/07/01 03:00:58;;;;;;;;;;;;;;;28.34;42.92;100276.97;5097869;28;943;-38
2021/07/01 03:03:23;;;;;;;;;;;;;;;28.34;43.04;100278.84;5098017;28;834;-38
2021/07/01 03:05:48;;;;;;;;;;;;;;;28.41;42.50;100274.28;5097626;28;799;-38
2021/07/01 03:08:14;;;;;;;;;;;;;;;28.34;42.96;100282.38;5098015;28;814;-38
2021/07/01 03:10:39;;;;;;;;;;;;;;;28.45;42.85;100285.53;5097949;28;827;-38
2021/07/01 03:13:04;;;;;;;;;;;;;;;28.34;43.08;100281.56;5097305;28;835;-42
2021/07/01 03:15:29;;;;;;;;;;;;;;;28.42;42.74;100284.09;5097563;28;907;-38
2021/07/01 03:17:55;;;;;;;;;;;;;;;28.40;42.31;100280.75;5097914;28;1901;-41
2021/07/01 03:20:20;;;;;;;;;;;;;;;28.42;42.39;100283.25;5097046;28;800;-41
2021/07/01 03:22:45;;;;;;;;;;;;;;;28.35;42.88;100278.66;5097597;28;1255;-37
2021/07/01 03:25:11;;;;;;;;;;;;;;;28.34;42.75;100281.56;5097775;28;772;-39
2021/07/01 03:27:36;;;;;;;;;;;;;;;27.68;51.03;100283.66;5097187;28;818;-41
2021/07/01 03:30:01;;;;;;;;;;;;;;;27.49;52.65;100278.75;5101109;28;1017;-37
2021/07/01 03:32:27;;;;;;;;;;;;;;;27.26;55.32;100273.59;5117985;28;784;-41
2021/07/01 03:34:52;;;;;;;;;;;;;;;27.38;54.07;100274.75;5117131;28;892;-39
2021/07/01 03:37:17;;;;;;;;;;;;;;;27.36;53.55;100273.28;5117820;28;807;-41
2021/07/01 03:39:43;;;;;;;;;;;;;;;27.34;55.09;100283.44;5117543;28;1926;-39
2021/07/01 03:42:09;;;;;;;;;;;;;;;27.36;55.83;100276.00;5117249;28;790;-41
2021/07/01 03:44:37;;;;;;;;;;;;;;;27.60;55.10;100281.94;5109701;28;950;-38
2021/07/01 03:47:02;;;;;;;;;;;;;;;22.77;62.23;100275.91;5097301;28;831;-41
2021/07/01 03:49:27;;;;;;;;;;;;;;;21.58;63.79;100277.38;5097048;28;804;-40
2021/07/01 03:51:53;;;;;;;;;;;;;;;24.52;54.33;100281.84;5097165;28;800;-37
2021/07/01 03:54:18;;;;;;;;;;;;;;;25.29;55.56;100286.53;5097115;28;807;-37
2021/07/01 03:56:44;;;;;;;;;;;;;;;25.58;58.35;100292.97;5096693;28;843;-41
2021/07/01 03:59:12;;;;;;;;;;;;;;;25.74;57.59;100288.47;5096694;28;1902;-39
2021/07/01 04:01:38;;;;;;;;;;;;;;;25.86;56.60;100284.28;5096774;28;810;-38
2021/07/01 04:04:03;;;;;;;;;;;;;;;25.88;59.21;100293.03;5097224;28;760;-38
2021/07/01 04:06:29;;;;;;;;;;;;;;;25.53;57.03;100285.44;5097035;28;776;-40
2021/07/01 04:08:54;;;;;;;;;;;;;;;25.43;57.68;100292.94;5096911;28;803;-41
2021/07/01 04:11:19;;;;;;;;;;;;;;;24.04;61.30;100285.34;5096404;28;752;-40
2021/07/01 04:13:44;;;;;;;;;;;;;;;22.94;66.43;100272.22;5096735;28;1001;-42
2021/07/01 04:16:10;;;;;;;;;;;;;;;23.46;65.43;100267.56;5096997;28;878;-40
2021/07/01 04:18:35;;;;;;;;;;;;;;;22.95;64.78;100281.13;5096706;28;1897;-40
2021/07/01 04:21:00;;;;;;;;;;;;;;;22.99;64.96;100290.50;5096969;28;906;-40
2021/07/01 04:23:26;;;;;;;;;;;;;;;22.65;63.79;100291.47;5096193;28;1292;-40
2021/07/01 04:25:52;;;;;;;;;;;;;;;22.09;64.40;100300.75;5096136;28;1498;-41
2021/07/01 04:28:17;;;;;;;;;;;;;;;21.96;63.77;100286.00;5078863;28;776;-40
2021/07/01 04:30:42;;;;;;;;;;;;;;;22.16;62.39;100288.41;5096797;28;970;-44
2021/07/01 04:33:08;;;;;;;;;;;;;;;22.02;66.99;100297.91;5100343;28;1418;-39
2021/07/01 04:35:33;;;;;;;;;;;;;;;21.94;66.48;100295.19;5100911;28;818;-42
2021/07/01 04:37:58;;;;;;;;;;;;;;;24.45;58.82;100295.16;5100649;28;1898;-36
2021/07/01 04:40:23;;;;;;;;;;;;;;;25.76;51.95;100295.34;5100617;28;747;-40
2021/07/01 04:42:49;;;;;;;;;;;;;;;26.34;48.14;100301.94;5100728;28;795;-38
2021/07/01 04:45:14;;;;;;;;;;;;;;;26.57;47.40;100302.81;5100410;28;935;-44
2021/07/01 04:47:39;;;;;;;;;;;;;;;26.80;46.67;100313.44;5100369;28;748;-45
2021/07/01 04:50:05;;;;;;;;;;;;;;;26.89;45.57;100306.91;5100767;28;748;-36
2021/07/01 04:52:30;;;;;;;;;;;;;;;26.93;45.06;100315.44;5100011;28;803;-37
2021/07/01 04:54:56;;;;;;;;;;;;;;;27.13;46.60;100323.78;5081943;28;1284;-37
2021/07/01 04:57:21;;;;;;;;;;;;;;;27.01;44.35;100327.97;5100355;28;775;-35
2021/07/01 04:59:46;;;;;;;;;;;;;;;27.09;43.63;100337.84;5100352;28;1978;-43
2021/07/01 05:02:11;;;;;;;;;;;;;;;27.12;43.38;100332.91;5100131;28;824;-42
2021/07/01 05:04:37;;;;;;;;;;;;;;;27.16;43.14;100327.13;5100262;28;756;-41
2021/07/01 05:07:02;;;;;;;;;;;;;;;27.24;43.58;100322.41;5100198;28;819;-39
2021/07/01 05:09:27;;;;;;;;;;;;;;;27.20;44.23;100317.59;5099783;28;1024;-38
2021/07/01 05:11:53;;;;;;;;;;;;;;;27.20;42.66;100318.44;5098676;28;1163;-41
2021/07/01 05:14:18;;;;;;;;;;;;;;;27.30;43.79;100325.34;5098636;28;1226;-40
2021/07/01 05:16:43;;;;;;;;;;;;;;;27.32;44.82;100320.59;5098885;28;1210;-38
2021/07/01 05:19:08;;;;;;;;;;;;;;;27.38;42.62;100309.84;5097986;28;1963;-40
2021/07/01 05:21:34;;;;;;;;;;;;;;;27.28;42.98;100308.53;5098638;28;1182;-40
2021/07/01 05:24:00;;;;;;;;;;;;;;;27.39;43.39;100297.19;5099256;28;1233;-39
2021/07/01 05:26:25;;;;;;;;;;;;;;;27.33;46.91;100293.41;5099087;28;840;-38
2021/07/01 05:28:50;;;;;;;;;;;;;;;27.41;45.18;100302.41;5100029;28;943;-39
2021/07/01 05:31:16;;;;;;;;;;;;;;;26.78;51.55;100302.84;5099787;28;775;-35
2021/07/01 05:33:41;;;;;;;;;;;;;;;27.35;43.46;100298.59;5099442;28;771;-41
2021/07/01 05:36:06;;;;;;;;;;;;;;;27.30;43.60;100304.59;5099640;28;792;-38
2021/07/01 05:38:31;;;;;;;;;;;;;;;27.38;43.44;100311.72;5100026;28;1918;-39
2021/07/01 05:40:57;;;;;;;;;;;;;;;27.24;40.53;100330.50;5099406;28;784;-39
2021/07/01 05:43:24;;;;;;;;;;;;;;;27.29;41.74;100351.56;5099598;28;775;-39
2021/07/01 05:45:49;;;;;;;;;;;;;;;27.30;42.24;100363.16;5099516;28;927;-38
2021/07/01 05:48:15;;;;;;;;;;;;;;;27.13;42.72;100366.13;5099031;28;751;-39
2021/07/01 05:50:49;;;;;;;;;;;;;;;27.25;42.39;100356.50;5099215;28;860;-38
2021/07/01 05:53:22;;;;;;;;;;;;;;;27.37;42.56;100347.88;5099048;28;847;-42
2021/07/01 05:55:47;;;;;;;;;;;;;;;27.35;45.28;100341.81;5098098;28;924;-40
2021/07/01 05:58:13;;;;;;;;;;;;;;;27.46;41.79;100352.09;5099446;28;1969;-39
2021/07/01 06:00:38;;;;;;;;;;;;;;;27.61;41.63;100362.00;5099053;28;982;-40
2021/07/01 06:03:03;;;;;;;;;;;;;;;27.49;43.33;100367.91;5098672;28;763;-41
2021/07/01 06:05:29;;;;;;;;;;;;;;;27.36;41.63;100355.13;5099136;28;816;-37
2021/07/01 06:07:54;;;;;;;;;;;;;;;27.24;41.86;100352.09;5099229;28;752;-39
2021/07/01 06:10:19;;;;;;;;;;;;;;;27.25;42.20;100356.50;5097449;28;1286;-39
2021/07/01 06:12:45;;;;;;;;;;;;;;;27.13;42.68;100355.31;5098707;28;764;-39
2021/07/01 06:15:10;;;;;;;;;;;;;;;27.13;42.33;100344.53;5098720;28;951;-39
2021/07/01 06:17:36;;;;;;;;;;;;;;;27.11;42.80;100325.00;5098681;28;744;-39
2021/07/01 06:20:02;;;;;;;;;;;;;;;27.14;42.50;100324.63;5098895;28;1960;-39
2021/07/01 06:22:28;;;;;;;;;;;;;;;27.21;42.66;100330.91;5098934;28;1192;-39
2021/07/01 06:24:54;;;;;;;;;;;;;;;27.37;42.12;100329.81;5098413;28;788;-37
2021/07/01 06:27:29;;;;;;;;;;;;;;;27.22;43.06;100329.88;5099233;28;774;-39
2021/07/01 06:29:55;;;;;;;;;;;;;;;27.24;43.30;100325.09;5098749;28;962;-38
2021/07/01 06:32:20;;;;;;;;;;;;;;;27.35;42.56;100325.63;5098210;28;733;-39
2021/07/01 06:34:46;;;;;;;;;;;;;;;27.29;42.38;100327.25;5098707;28;787;-42
2021/07/01 06:37:12;;;;;;;;;;;;;;;27.20;42.81;100314.88;5098596;28;831;-39
2021/07/01 06:39:37;;;;;;;;;;;;;;;27.17;43.32;100304.47;5098050;28;1910;-39
2021/07/01 06:42:03;;;;;;;;;;;;;;;27.28;43.20;100300.44;5080605;28;819;-40
2021/07/01 06:44:28;;;;;;;;;;;;;;;27.42;45.33;100294.09;5079348;28;1460;-39
2021/07/01 06:46:53;;;;;;;;;;;;;;;27.33;45.96;100295.25;5079068;28;837;-40
2021/07/01 06:49:19;;;;;;;;;;;;;;;27.19;44.28;100287.06;5098456;28;739;-39
2021/07/01 06:51:45;;;;;;;;;;;;;;;27.46;42.69;100289.97;5098257;28;748;-40
2021/07/01 06:54:14;;;;;;;;;;;;;;;27.52;42.36;100280.25;5097432;28;838;-40
2021/07/01 06:56:40;;;;;;;;;;;;;;;27.38;42.85;100290.09;5098203;28;851;-39
2021/07/01 06:59:14;;;;;;;;;;;;;;;27.37;43.22;100285.75;5098060;28;1906;-40
2021/07/01 07:01:39;;;;;;;;;;;;;;;27.24;43.36;100281.91;5097687;28;748;-39
2021/07/01 07:04:04;;;;;;;;;;;;;;;27.39;43.40;100275.59;5098009;28;858;-39
2021/07/01 07:06:30;;;;;;;;;;;;;;;27.65;44.36;100276.78;5079414;28;789;-39
2021/07/01 07:08:56;;;;;;;;;;;;;;;27.60;42.82;100281.94;5097403;28;785;-38
2021/07/01 07:11:21;;;;;;;;;;;;;;;27.53;43.89;100276.50;5079688;28;1434;-40
2021/07/01 07:13:46;;;;;;;;;;;;;;;27.49;43.36;100269.84;5097883;28;943;-37
2021/07/01 07:16:12;;;;;;;;;;;;;;;27.47;43.41;100266.50;5097499;28;846;-41
2021/07/01 07:18:37;;;;;;;;;;;;;;;27.51;43.80;100274.00;5079750;28;1959;-37
2021/07/01 07:21:03;;;;;;;;;;;;;;;27.45;43.17;100272.09;5079504;28;736;-40
2021/07/01 07:23:29;;;;;;;;;;;;;;;27.56;42.94;100272.59;5078682;28;1280;-35
2021/07/01 07:25:55;;;;;;;;;;;;;;;27.65;43.26;100271.38;5097866;28;779;-38
2021/07/01 07:28:20;;;;;;;;;;;;;;;27.66;42.90;100272.22;5097630;28;736;-36
2021/07/01 07:30:45;;;;;;;;;;;;;;;27.66;43.16;100274.94;5078980;28;1010;-42
2021/07/01 07:33:11;;;;;;;;;;;;;;;27.74;42.80;100264.81;5079012;28;1262;-40
2021/07/01 07:35:36;;;;;;;;;;;;;;;27.65;42.75;100268.69;5097694;28;775;-43
2021/07/01 07:38:05;;;;;;;;;;;;;;;27.83;42.75;100272.75;5097298;28;740;-42
2021/07/01 07:40:30;;;;;;;;;;;;;;;28.02;43.41;100281.19;5096943;28;849;-35
2021/07/01 07:42:56;;;;;;;;;;;;;;;28.08;44.64;100274.97;5097770;28;783;-44
2021/07/01 07:45:21;;;;;;;;;;;;;;;28.18;45.67;100274.59;5096644;28;935;-37
2021/07/01 07:47:46;;;;;;;;;;;;;;;28.32;46.55;100270.06;5096814;28;819;-42
2021/07/01 07:50:12;;;;;;;;;;;;;;;28.30;47.38;100266.72;5079071;28;775;-41
2021/07/01 07:52:39;;;;;;;;;;;;;;;28.35;48.78;100267.81;5077051;28;744;-37
2021/07/01 07:55:05;;;;;;;;;;;;;;;28.55;48.71;100264.34;5092173;28;764;-42
2021/07/01 07:57:30;;;;;;;;;;;;;;;28.47;48.92;100267.22;5076526;28;792;-35
2021/07/01 07:59:56;;;;;;;;;;;;;;;28.53;49.76;100279.13;5095748;28;1906;-35
2021/07/01 08:02:22;;;;;;;;;;;;;;;28.65;49.93;100272.06;5097111;28;854;-42
2021/07/01 08:04:47;;;;;;;;;;;;;;;28.68;49.34;100270.81;5096642;28;779;-41
2021/07/01 08:07:12;;;;;;;;;;;;;;;28.70;50.21;100271.44;5096081;28;780;-40
2021/07/01 08:09:38;;;;;;;;;;;;;;;28.79;49.93;100274.78;5078671;28;1157;-37
2021/07/01 08:12:03;;;;;;;;;;;;;;;28.73;50.32;100260.19;5097047;28;760;-42
2021/07/01 08:14:28;;;;;;;;;;;;;;;28.68;50.72;100274.34;5096358;28;947;-37
2021/07/01 08:16:54;;;;;;;;;;;;;;;28.84;50.85;100272.31;5078511;28;803;-43
2021/07/01 08:19:19;;;;;;;;;;;;;;;28.85;50.61;100273.97;5096844;28;1901;-37
2021/07/01 08:21:45;;;;;;;;;;;;;;;28.87;50.81;100265.63;5096659;28;795;-42
2021/07/01 08:24:10;;;;;;;;;;;;;;;28.96;50.71;100281.47;5096686;28;1322;-38
2021/07/01 08:26:35;;;;;;;;;;;;;;;28.97;50.80;100274.22;5096811;28;759;-42
2021/07/01 08:29:01;;;;;;;;;;;;;;;28.98;50.85;100284.00;5096319;28;962;-43
2021/07/01 08:31:26;;;;;;;;;;;;;;;29.18;51.09;100285.88;5096393;28;806;-35
2021/07/01 08:33:51;;;;;;;;;;;;;;;29.15;50.44;100289.84;5096762;28;807;-42
2021/07/01 08:36:16;;;;;;;;;;;;;;;29.16;51.01;100288.78;5096386;28;732;-44
2021/07/01 08:38:42;;;;;;;;;;;;;;;29.27;50.79;100298.19;5096379;28;1975;-43
2021/07/01 08:41:14;;;;;;;;;;;;;;;29.21;50.34;100288.19;5096670;28;732;-35
2021/07/01 08:43:41;;;;;;;;;;;;;;;29.12;50.73;100297.53;5096486;28;500;-43
2021/07/01 08:46:14;;;;;;;;;;;;;;;29.15;51.05;100287.13;5075835;28;788;-43
2021/07/01 08:48:51;;;;;;;;;;;;;;;29.16;51.22;100290.69;5076192;28;840;-41
2021/07/01 08:51:16;;;;;;;;;;;;;;;29.12;50.89;100292.13;5076469;28;799;-46
2021/07/01 08:53:49;;;;;;;;;;;;;;;29.17;51.11;100292.34;5058184;28;550;-46
2021/07/01 08:56:14;;;;;;;;;;;;;;;29.22;51.24;100279.00;5075880;28;814;-47
2021/07/01 08:58:43;;;;;;;;;;;;;;;29.34;51.47;100274.59;5058461;28;1909;-42
2021/07/01 09:01:08;;;;;;;;;;;;;;;29.28;51.46;100280.06;5075995;28;780;-34
2021/07/01 09:03:33;;;;;;;;;;;;;;;29.49;51.40;100278.16;5075948;28;875;-41
2021/07/01 09:06:01;;;;;;;;;;;;;;;29.56;51.66;100281.69;5058395;28;750;-38
2021/07/01 09:08:27;;;;;;;;;;;;;;;29.49;51.51;100278.16;5075610;28;835;-42
2021/07/01 09:10:52;;;;;;;;;;;;;;;29.60;51.44;100282.94;5058264;28;748;-40
2021/07/01 09:13:21;;;;;;;;;;;;;;;29.55;51.84;100277.28;5076209;28;819;-38
2021/07/01 09:15:47;;;;;;;;;;;;;;;29.62;51.60;100270.03;5092883;28;956;-43
2021/07/01 09:18:12;;;;;;;;;;;;;;;29.46;51.52;100258.56;5098826;28;1909;-43
2021/07/01 09:20:38;;;;;;;;;;;;;;;29.56;51.43;100257.31;5082090;28;855;-35
2021/07/01 09:23:04;;;;;;;;;;;;;;;29.50;51.64;100253.53;5099535;28;1075;-43
2021/07/01 09:25:29;;;;;;;;;;;;;;;29.51;51.40;100259.81;5099806;28;897;-35
2021/07/01 09:27:55;;;;;;;;;;;;;;;29.63;51.12;100255.41;5100046;28;728;-37
2021/07/01 09:30:25;;;;;;;;;;;;;;;29.62;51.39;100256.47;5098918;28;959;-43
2021/07/01 09:32:52;;;;;;;;;;;;;;;29.61;51.78;100260.25;5099812;28;887;-42
2021/07/01 09:35:18;;;;;;;;;;;;;;;29.67;51.25;100255.84;5100021;28;771;-34
2021/07/01 09:37:46;;;;;;;;;;;;;;;29.26;54.92;100250.44;5081211;28;808;-37
2021/07/01 09:40:13;;;;;;;;;;;;;;;29.68;53.45;100250.19;5099884;28;1983;-39
2021/07/01 09:42:38;;;;;;;;;;;;;;;29.76;53.28;100248.31;5099973;28;720;-37
2021/07/01 09:45:13;;;;;;;;;;;;;;;29.82;52.99;100247.44;5098865;28;907;-38
2021/07/01 09:47:40;;;;;;;;;;;;;;;29.89;52.25;100237.44;5099350;28;767;-37
2021/07/01 09:50:05;;;;;;;;;;;;;;;29.78;52.56;100230.78;5099537;28;772;-39
2021/07/01 09:52:34;;;;;;;;;;;;;;;29.50;55.38;100234.56;5099129;28;768;-37
2021/07/01 09:55:00;;;;;;;;;;;;;;;29.18;57.63;100240.66;5099209;28;815;-36
2021/07/01 09:57:28;;;;;;;;;;;;;;;29.86;54.31;100232.44;5099110;28;732;-38
2021/07/01 09:59:54;;;;;;;;;;;;;;;29.91;53.43;100239.91;5098659;28;1906;-39
2021/07/01 10:02:20;;;;;;;;;;;;;;;29.90;53.29;100241.78;5098932;28;860;-36
2021/07/01 10:04:45;;;;;;;;;;;;;;;29.94;52.76;100243.03;5098990;28;771;-38
2021/07/01 10:07:11;;;;;;;;;;;;;;;29.88;52.96;100243.06;5098667;28;744;-38
2021/07/01 10:09:37;;;;;;;;;;;;;;;29.92;52.83;100238.84;5098954;28;883;-40
2021/07/01 10:12:02;;;;;;;;;;;;;;;29.97;52.60;100249.06;5098932;28;841;-39
2021/07/01 10:14:36;;;;;;;;;;;;;;;30.00;52.72;100246.75;5080015;28;1156;-36
2021/07/01 10:17:12;;;;;;;;;;;;;;;30.02;52.72;100241.97;5098673;28;747;-38
2021/07/01 10:19:37;;;;;;;;;;;;;;;29.99;52.21;100238.84;5098883;28;1910;-41
2021/07/01 10:22:03;;;;;;;;;;;;;;;29.94;52.38;100239.50;5080327;28;1060;-38
2021/07/01 10:24:30;;;;;;;;;;;;;;;30.01;52.28;100236.75;5098871;28;947;-37
2021/07/01 10:26:56;;;;;;;;;;;;;;;29.97;51.89;100235.50;5098272;28;768;-35
2021/07/01 10:29:21;;;;;;;;;;;;;;;30.07;52.25;100238.59;5079423;28;1026;-38
2021/07/01 10:31:56;;;;;;;;;;;;;;;30.05;52.32;100233.38;5098330;28;955;-38
2021/07/01 10:34:22;;;;;;;;;;;;;;;30.02;51.79;100220.25;5098638;28;811;-38
2021/07/01 10:36:48;;;;;;;;;;;;;;;30.06;51.67;100228.81;5098122;28;739;-39
2021/07/01 10:39:13;;;;;;;;;;;;;;;30.08;52.55;100220.44;5080357;28;1965;-40
2021/07/01 10:41:41;;;;;;;;;;;;;;;30.03;52.33;100223.81;5080529;28;728;-38
2021/07/01 10:44:06;;;;;;;;;;;;;;;30.17;52.30;100227.28;5098031;28;959;-39
2021/07/01 10:46:47;;;;;;;;;;;;;;;30.10;52.13;100219.16;5080309;28;817;-36
2021/07/01 10:49:12;;;;;;;;;;;;;;;30.16;51.98;100214.78;5098170;28;847;-40
2021/07/01 10:51:39;;;;;;;;;;;;;;;30.21;51.99;100206.00;5097983;28;768;-38
2021/07/01 10:54:11;;;;;;;;;;;;;;;30.24;51.71;100211.84;5079817;28;1540;-40
2021/07/01 10:56:45;;;;;;;;;;;;;;;30.30;51.58;100205.53;5098355;28;803;-36
2021/07/01 10:59:11;;;;;;;;;;;;;;;30.26;51.75;100198.06;5080697;28;1953;-41
2021/07/01 11:01:37;;;;;;;;;;;;;;;30.30;51.25;100196.56;5098411;28;809;-40
2021/07/01 11:04:05;;;;;;;;;;;;;;;30.31;51.34;100200.94;5098205;28;787;-38
2021/07/01 11:06:30;;;;;;;;;;;;;;;30.36;51.39;100203.00;5097598;28;799;-38
2021/07/01 11:08:56;;;;;;;;;;;;;;;30.40;51.05;100202.34;5097949;28;764;-41
2021/07/01 11:11:22;;;;;;;;;;;;;;;30.39;51.00;100205.28;5098101;28;779;-40
2021/07/01 11:13:54;;;;;;;;;;;;;;;30.45;50.51;100192.72;5097783;28;970;-36
2021/07/01 11:16:19;;;;;;;;;;;;;;;30.41;50.67;100190.41;5097911;28;783;-38
2021/07/01 11:18:46;;;;;;;;;;;;;;;30.45;50.76;100188.09;5097701;28;1906;-40
2021/07/01 11:21:15;;;;;;;;;;;;;;;30.38;50.83;100176.47;5097577;28;779;-37
2021/07/01 11:23:41;;;;;;;;;;;;;;;30.40;50.59;100180.63;5097605;28;1132;-41
2021/07/01 11:26:22;;;;;;;;;;;;;;;30.41;50.43;100176.84;5097728;28;823;-39
2021/07/01 11:28:47;;;;;;;;;;;;;;;30.41;50.18;100181.47;5096564;28;1068;-38
2021/07/01 11:31:12;;;;;;;;;;;;;;;30.41;50.26;100176.84;5097689;28;771;-36
2021/07/01 11:33:37;;;;;;;;;;;;;;;30.45;50.33;100181.88;5097469;28;810;-38
2021/07/01 11:36:10;;;;;;;;;;;;;;;30.48;50.26;100174.09;5097157;28;815;-39
2021/07/01 11:38:35;;;;;;;;;;;;;;;30.48;49.79;100176.81;5097393;28;1973;-38
2021/07/01 11:41:03;;;;;;;;;;;;;;;30.48;49.85;100168.66;5097110;28;824;-39
2021/07/01 11:43:29;;;;;;;;;;;;;;;30.54;49.50;100173.22;5097027;28;797;-38
2021/07/01 11:45:54;;;;;;;;;;;;;;;30.45;50.59;100168.31;5097090;28;946;-39
2021/07/01 11:48:20;;;;;;;;;;;;;;;30.49;50.69;100164.06;5097063;28;721;-38
2021/07/01 11:50:48;;;;;;;;;;;;;;;30.47;50.39;100166.16;5097039;28;838;-40
2021/07/01 11:53:13;;;;;;;;;;;;;;;30.57;50.98;100163.81;5097367;28;791;-33
2021/07/01 11:55:39;;;;;;;;;;;;;;;30.53;50.80;100160.69;5079029;28;780;-34
2021/07/01 11:58:04;;;;;;;;;;;;;;;30.52;51.04;100150.06;5096793;28;815;-41
2021/07/01 12:00:29;;;;;;;;;;;;;;;30.52;50.58;100150.06;5078925;28;1953;-40
2021/07/01 12:02:55;;;;;;;;;;;;;;;30.53;51.13;100149.03;5097011;28;739;-40
2021/07/01 12:05:20;;;;;;;;;;;;;;;30.54;50.83;100145.25;5078739;28;775;-41
2021/07/01 12:07:45;;;;;;;;;;;;;;;30.50;50.98;100146.72;5078934;28;791;-34
2021/07/01 12:10:11;;;;;;;;;;;;;;;30.53;51.12;100155.25;5079005;28;810;-33
2021/07/01 12:12:38;;;;;;;;;;;;;;;30.57;51.30;100149.41;5078399;28;1289;-43
2021/07/01 12:15:03;;;;;;;;;;;;;;;30.57;51.00;100142.09;5096629;28;950;-37
2021/07/01 12:17:51;;;;;;;;;;;;;;;28.19;53.96;100139.19;5097083;28;760;-35
2021/07/01 12:20:26;;;;;;;;;;;;;;;25.04;55.66;100134.16;5096129;28;1956;-38
2021/07/01 12:22:51;;;;;;;;;;;;;;;23.67;54.16;100125.72;5096262;28;1308;-37
2021/07/01 12:25:18;;;;;;;;;;;;;;;22.63;52.70;100120.06;5096900;28;784;-39
2021/07/01 12:27:43;;;;;;;;;;;;;;;21.95;51.12;100115.59;5096542;28;799;-39
2021/07/01 12:30:08;;;;;;;;;;;;;;;21.37;50.29;100116.19;5096139;28;1021;-34
2021/07/01 12:32:34;;;;;;;;;;;;;;;20.95;49.30;100111.59;5096859;28;771;-39
2021/07/01 12:35:01;;;;;;;;;;;;;;;20.55;48.36;100117.31;5096433;28;832;-34
2021/07/01 12:37:26;;;;;;;;;;;;;;;20.02;47.98;100101.91;5078218;28;1270;-38
2021/07/01 12:39:51;;;;;;;;;;;;;;;19.59;47.98;100101.59;5078509;28;2023;-37
2021/07/01 12:42:17;;;;;;;;;;;;;;;19.30;48.37;100092.75;5096398;28;763;-41
2021/07/01 12:44:43;;;;;;;;;;;;;;;19.18;48.72;100089.44;5095648;28;981;-35
2021/07/01 12:47:13;;;;;;;;;;;;;;;19.16;48.58;100088.75;5096700;28;827;-34
2021/07/01 12:49:39;;;;;;;;;;;;;;;18.87;48.84;100080.81;5095732;28;847;-34